sensor_id;sensor_type;location;lat;lon;timestamp;P1;durP1;ratioP1;P2;durP2;ratioP2
70707;SDS011;58277;47.316;18.908;2022-08-18T00:00:26;9.38;;;5.30;;
70707;SDS011;58277;47.316;18.908;2022-08-18T00:02:50;8.45;;;5.22;;
70707;SDS011;58277;47.316;18.908;2022-08-18T00:05:33;11.32;;;5.38;;
70707;SDS011;58277;47.316;18.908;2022-08-18T00:07:59;8.47;;;5.57;;
70707;SDS011;58277;47.316;18.908;2022-08-18T00:10:23;10.88;;;5.68;;
70707;SDS011;58277;47.316;18.908;2022-08-18T00:12:46;8.63;;;5.60;;
70707;SDS011;58277;47.316;18.908;2022-08-18T00:15:11;9.43;;;5.53;;
70707;SDS011;58277;47.316;18.908;2022-08-18T00:17:36;8.32;;;5.63;;
70707;SDS011;58277;47.316;18.908;2022-08-18T00:19:59;8.67;;;5.80;;
70707;SDS011;58277;47.316;18.908;2022-08-18T00:22:22;11.23;;;6.05;;
70707;SDS011;58277;47.316;18.908;2022-08-18T00:24:46;10.07;;;6.45;;
70707;SDS011;58277;47.316;18.908;2022-08-18T00:27:10;12.38;;;6.45;;
70707;SDS011;58277;47.316;18.908;2022-08-18T00:29:33;10.07;;;6.40;;
70707;SDS011;58277;47.316;18.908;2022-08-18T00:31:56;11.10;;;6.03;;
70707;SDS011;58277;47.316;18.908;2022-08-18T00:34:19;10.63;;;6.32;;
70707;SDS011;58277;47.316;18.908;2022-08-18T00:36:42;10.57;;;6.93;;
70707;SDS011;58277;47.316;18.908;2022-08-18T00:39:05;10.65;;;6.97;;
70707;SDS011;58277;47.316;18.908;2022-08-18T00:41:27;11.48;;;6.88;;
70707;SDS011;58277;47.316;18.908;2022-08-18T00:43:51;11.97;;;6.70;;
70707;SDS011;58277;47.316;18.908;2022-08-18T00:46:17;9.55;;;6.60;;
70707;SDS011;58277;47.316;18.908;2022-08-18T00:48:45;8.80;;;6.93;;
70707;SDS011;58277;47.316;18.908;2022-08-18T00:51:11;11.13;;;7.03;;
70707;SDS011;58277;47.316;18.908;2022-08-18T00:56:32;12.60;;;7.47;;
70707;SDS011;58277;47.316;18.908;2022-08-18T00:59:07;14.52;;;7.70;;
70707;SDS011;58277;47.316;18.908;2022-08-18T01:01:51;13.35;;;7.93;;
70707;SDS011;58277;47.316;18.908;2022-08-18T01:04:23;10.25;;;7.70;;
70707;SDS011;58277;47.316;18.908;2022-08-18T01:06:51;14.75;;;7.80;;
70707;SDS011;58277;47.316;18.908;2022-08-18T01:09:16;16.07;;;8.83;;
70707;SDS011;58277;47.316;18.908;2022-08-18T01:11:39;12.25;;;7.57;;
70707;SDS011;58277;47.316;18.908;2022-08-18T01:14:05;12.90;;;8.07;;
70707;SDS011;58277;47.316;18.908;2022-08-18T01:16:29;13.85;;;8.57;;
70707;SDS011;58277;47.316;18.908;2022-08-18T01:19:19;13.70;;;8.18;;
70707;SDS011;58277;47.316;18.908;2022-08-18T01:22:03;14.87;;;8.40;;
70707;SDS011;58277;47.316;18.908;2022-08-18T01:24:34;15.20;;;8.30;;
70707;SDS011;58277;47.316;18.908;2022-08-18T01:27:17;12.90;;;8.05;;
70707;SDS011;58277;47.316;18.908;2022-08-18T01:29:40;13.48;;;8.60;;
70707;SDS011;58277;47.316;18.908;2022-08-18T01:32:04;13.80;;;8.38;;
70707;SDS011;58277;47.316;18.908;2022-08-18T01:34:27;13.07;;;8.93;;
70707;SDS011;58277;47.316;18.908;2022-08-18T01:36:50;13.23;;;8.05;;
70707;SDS011;58277;47.316;18.908;2022-08-18T01:39:14;13.27;;;8.98;;
70707;SDS011;58277;47.316;18.908;2022-08-18T01:41:57;13.65;;;8.48;;
70707;SDS011;58277;47.316;18.908;2022-08-18T01:44:19;14.80;;;9.23;;
70707;SDS011;58277;47.316;18.908;2022-08-18T01:46:42;16.80;;;9.17;;
70707;SDS011;58277;47.316;18.908;2022-08-18T01:49:04;15.38;;;8.90;;
70707;SDS011;58277;47.316;18.908;2022-08-18T01:51:30;14.45;;;9.10;;
70707;SDS011;58277;47.316;18.908;2022-08-18T01:54:02;13.20;;;9.10;;
70707;SDS011;58277;47.316;18.908;2022-08-18T01:56:26;15.80;;;9.93;;
70707;SDS011;58277;47.316;18.908;2022-08-18T01:58:49;16.17;;;9.90;;
70707;SDS011;58277;47.316;18.908;2022-08-18T02:01:16;14.63;;;9.48;;
70707;SDS011;58277;47.316;18.908;2022-08-18T02:03:40;16.95;;;9.73;;
70707;SDS011;58277;47.316;18.908;2022-08-18T02:06:10;15.52;;;9.27;;
70707;SDS011;58277;47.316;18.908;2022-08-18T02:08:36;15.38;;;9.85;;
70707;SDS011;58277;47.316;18.908;2022-08-18T02:11:04;15.63;;;10.40;;
70707;SDS011;58277;47.316;18.908;2022-08-18T02:13:28;16.42;;;9.98;;
70707;SDS011;58277;47.316;18.908;2022-08-18T02:15:51;15.02;;;9.85;;
70707;SDS011;58277;47.316;18.908;2022-08-18T02:18:14;16.48;;;10.30;;
70707;SDS011;58277;47.316;18.908;2022-08-18T02:21:04;14.48;;;10.02;;
70707;SDS011;58277;47.316;18.908;2022-08-18T02:23:31;14.83;;;10.10;;
70707;SDS011;58277;47.316;18.908;2022-08-18T02:25:54;14.73;;;9.98;;
70707;SDS011;58277;47.316;18.908;2022-08-18T02:28:17;16.40;;;9.60;;
70707;SDS011;58277;47.316;18.908;2022-08-18T02:30:39;15.18;;;9.70;;
70707;SDS011;58277;47.316;18.908;2022-08-18T02:33:05;13.98;;;10.02;;
70707;SDS011;58277;47.316;18.908;2022-08-18T02:35:29;15.23;;;10.03;;
70707;SDS011;58277;47.316;18.908;2022-08-18T02:37:52;16.52;;;9.90;;
70707;SDS011;58277;47.316;18.908;2022-08-18T02:40:16;14.60;;;9.55;;
70707;SDS011;58277;47.316;18.908;2022-08-18T02:42:40;15.02;;;9.50;;
70707;SDS011;58277;47.316;18.908;2022-08-18T02:45:03;14.65;;;9.48;;
70707;SDS011;58277;47.316;18.908;2022-08-18T02:47:30;15.17;;;10.40;;
70707;SDS011;58277;47.316;18.908;2022-08-18T02:49:54;17.48;;;9.88;;
70707;SDS011;58277;47.316;18.908;2022-08-18T02:52:17;14.25;;;10.00;;
70707;SDS011;58277;47.316;18.908;2022-08-18T02:54:40;15.50;;;10.23;;
70707;SDS011;58277;47.316;18.908;2022-08-18T02:57:09;15.88;;;10.05;;
70707;SDS011;58277;47.316;18.908;2022-08-18T02:59:33;16.27;;;10.13;;
70707;SDS011;58277;47.316;18.908;2022-08-18T03:01:56;15.32;;;9.80;;
70707;SDS011;58277;47.316;18.908;2022-08-18T03:04:27;15.80;;;10.20;;
70707;SDS011;58277;47.316;18.908;2022-08-18T03:06:52;18.27;;;9.65;;
70707;SDS011;58277;47.316;18.908;2022-08-18T03:09:16;16.55;;;10.43;;
70707;SDS011;58277;47.316;18.908;2022-08-18T03:11:39;13.93;;;10.30;;
70707;SDS011;58277;47.316;18.908;2022-08-18T03:14:05;17.38;;;10.23;;
70707;SDS011;58277;47.316;18.908;2022-08-18T03:16:32;15.18;;;10.35;;
70707;SDS011;58277;47.316;18.908;2022-08-18T03:18:56;15.55;;;10.50;;
70707;SDS011;58277;47.316;18.908;2022-08-18T03:21:20;15.13;;;10.40;;
70707;SDS011;58277;47.316;18.908;2022-08-18T03:26:30;14.85;;;10.23;;
70707;SDS011;58277;47.316;18.908;2022-08-18T03:28:54;18.05;;;10.50;;
70707;SDS011;58277;47.316;18.908;2022-08-18T03:31:18;16.27;;;10.68;;
70707;SDS011;58277;47.316;18.908;2022-08-18T03:33:45;17.55;;;10.68;;
70707;SDS011;58277;47.316;18.908;2022-08-18T03:36:10;18.43;;;10.87;;
70707;SDS011;58277;47.316;18.908;2022-08-18T03:38:35;20.55;;;11.63;;
70707;SDS011;58277;47.316;18.908;2022-08-18T03:40:57;17.83;;;10.90;;
70707;SDS011;58277;47.316;18.908;2022-08-18T03:43:20;17.02;;;11.27;;
70707;SDS011;58277;47.316;18.908;2022-08-18T03:46:03;17.58;;;10.93;;
70707;SDS011;58277;47.316;18.908;2022-08-18T03:48:28;17.50;;;10.83;;
70707;SDS011;58277;47.316;18.908;2022-08-18T03:50:51;20.17;;;11.57;;
70707;SDS011;58277;47.316;18.908;2022-08-18T03:53:13;17.90;;;11.20;;
70707;SDS011;58277;47.316;18.908;2022-08-18T03:55:39;18.80;;;12.20;;
70707;SDS011;58277;47.316;18.908;2022-08-18T03:58:02;18.35;;;11.07;;
70707;SDS011;58277;47.316;18.908;2022-08-18T04:00:42;19.53;;;11.73;;
70707;SDS011;58277;47.316;18.908;2022-08-18T04:03:05;16.75;;;11.02;;
70707;SDS011;58277;47.316;18.908;2022-08-18T04:05:29;21.40;;;11.88;;
70707;SDS011;58277;47.316;18.908;2022-08-18T04:07:51;19.00;;;11.60;;
70707;SDS011;58277;47.316;18.908;2022-08-18T04:10:15;16.75;;;11.23;;
70707;SDS011;58277;47.316;18.908;2022-08-18T04:12:40;19.07;;;10.83;;
70707;SDS011;58277;47.316;18.908;2022-08-18T04:15:04;19.20;;;10.77;;
70707;SDS011;58277;47.316;18.908;2022-08-18T04:17:27;16.85;;;10.77;;
70707;SDS011;58277;47.316;18.908;2022-08-18T04:19:51;17.58;;;11.25;;
70707;SDS011;58277;47.316;18.908;2022-08-18T04:22:14;17.27;;;11.18;;
70707;SDS011;58277;47.316;18.908;2022-08-18T04:24:39;15.90;;;10.87;;
70707;SDS011;58277;47.316;18.908;2022-08-18T04:27:06;17.92;;;11.00;;
70707;SDS011;58277;47.316;18.908;2022-08-18T04:29:29;17.25;;;10.90;;
70707;SDS011;58277;47.316;18.908;2022-08-18T04:31:52;19.67;;;10.93;;
70707;SDS011;58277;47.316;18.908;2022-08-18T04:34:14;17.80;;;11.40;;
70707;SDS011;58277;47.316;18.908;2022-08-18T04:36:38;17.63;;;11.30;;
70707;SDS011;58277;47.316;18.908;2022-08-18T04:39:02;17.92;;;11.18;;
70707;SDS011;58277;47.316;18.908;2022-08-18T04:41:27;19.83;;;11.05;;
70707;SDS011;58277;47.316;18.908;2022-08-18T04:43:50;18.15;;;11.60;;
70707;SDS011;58277;47.316;18.908;2022-08-18T04:46:14;18.00;;;11.43;;
70707;SDS011;58277;47.316;18.908;2022-08-18T04:48:39;16.10;;;11.17;;
70707;SDS011;58277;47.316;18.908;2022-08-18T04:51:16;17.92;;;11.48;;
70707;SDS011;58277;47.316;18.908;2022-08-18T04:54:00;206.07;;;19.67;;
70707;SDS011;58277;47.316;18.908;2022-08-18T04:56:24;18.75;;;11.55;;
70707;SDS011;58277;47.316;18.908;2022-08-18T04:58:49;17.05;;;11.65;;
70707;SDS011;58277;47.316;18.908;2022-08-18T05:01:13;20.27;;;11.10;;
70707;SDS011;58277;47.316;18.908;2022-08-18T05:03:36;20.25;;;12.15;;
70707;SDS011;58277;47.316;18.908;2022-08-18T05:06:11;20.40;;;12.30;;
70707;SDS011;58277;47.316;18.908;2022-08-18T05:08:33;17.35;;;11.48;;
70707;SDS011;58277;47.316;18.908;2022-08-18T05:10:56;17.33;;;12.35;;
70707;SDS011;58277;47.316;18.908;2022-08-18T05:13:25;17.03;;;12.30;;
70707;SDS011;58277;47.316;18.908;2022-08-18T05:16:06;18.23;;;12.15;;
70707;SDS011;58277;47.316;18.908;2022-08-18T05:18:39;16.70;;;11.90;;
70707;SDS011;58277;47.316;18.908;2022-08-18T05:21:03;17.02;;;11.82;;
70707;SDS011;58277;47.316;18.908;2022-08-18T05:23:31;19.00;;;11.88;;
70707;SDS011;58277;47.316;18.908;2022-08-18T05:25:57;19.17;;;12.03;;
70707;SDS011;58277;47.316;18.908;2022-08-18T05:28:27;18.50;;;11.95;;
70707;SDS011;58277;47.316;18.908;2022-08-18T05:30:50;20.98;;;11.73;;
70707;SDS011;58277;47.316;18.908;2022-08-18T05:33:13;19.00;;;12.27;;
70707;SDS011;58277;47.316;18.908;2022-08-18T05:35:46;17.15;;;11.63;;
70707;SDS011;58277;47.316;18.908;2022-08-18T05:43:48;17.10;;;11.43;;
70707;SDS011;58277;47.316;18.908;2022-08-18T05:46:13;17.20;;;10.90;;
70707;SDS011;58277;47.316;18.908;2022-08-18T05:48:42;19.02;;;11.43;;
70707;SDS011;58277;47.316;18.908;2022-08-18T05:51:09;20.50;;;12.43;;
70707;SDS011;58277;47.316;18.908;2022-08-18T05:53:38;16.85;;;11.63;;
70707;SDS011;58277;47.316;18.908;2022-08-18T05:56:22;15.93;;;11.52;;
70707;SDS011;58277;47.316;18.908;2022-08-18T05:59:05;16.50;;;11.55;;
70707;SDS011;58277;47.316;18.908;2022-08-18T06:01:31;17.52;;;11.35;;
70707;SDS011;58277;47.316;18.908;2022-08-18T06:04:11;16.57;;;11.70;;
70707;SDS011;58277;47.316;18.908;2022-08-18T06:06:43;18.75;;;11.77;;
70707;SDS011;58277;47.316;18.908;2022-08-18T06:09:10;18.30;;;12.80;;
70707;SDS011;58277;47.316;18.908;2022-08-18T06:11:38;15.85;;;11.07;;
70707;SDS011;58277;47.316;18.908;2022-08-18T06:14:00;18.25;;;12.10;;
70707;SDS011;58277;47.316;18.908;2022-08-18T06:25:20;20.08;;;11.60;;
70707;SDS011;58277;47.316;18.908;2022-08-18T06:27:51;18.90;;;11.65;;
70707;SDS011;58277;47.316;18.908;2022-08-18T06:30:24;16.67;;;11.50;;
70707;SDS011;58277;47.316;18.908;2022-08-18T06:33:05;17.88;;;12.00;;
70707;SDS011;58277;47.316;18.908;2022-08-18T06:35:51;17.02;;;11.15;;
70707;SDS011;58277;47.316;18.908;2022-08-18T06:41:36;18.20;;;11.55;;
70707;SDS011;58277;47.316;18.908;2022-08-18T06:44:11;17.53;;;11.53;;
70707;SDS011;58277;47.316;18.908;2022-08-18T06:52:26;17.95;;;11.90;;
70707;SDS011;58277;47.316;18.908;2022-08-18T06:54:52;17.52;;;12.10;;
70707;SDS011;58277;47.316;18.908;2022-08-18T06:57:24;19.33;;;11.43;;
70707;SDS011;58277;47.316;18.908;2022-08-18T07:02:46;18.33;;;10.88;;
70707;SDS011;58277;47.316;18.908;2022-08-18T07:08:09;15.68;;;11.05;;
70707;SDS011;58277;47.316;18.908;2022-08-18T07:10:34;16.10;;;9.90;;
70707;SDS011;58277;47.316;18.908;2022-08-18T07:13:07;13.95;;;10.25;;
70707;SDS011;58277;47.316;18.908;2022-08-18T07:19:07;16.83;;;10.45;;
70707;SDS011;58277;47.316;18.908;2022-08-18T07:21:34;18.58;;;10.85;;
70707;SDS011;58277;47.316;18.908;2022-08-18T07:26:57;15.88;;;10.45;;
70707;SDS011;58277;47.316;18.908;2022-08-18T07:29:22;17.17;;;10.85;;
70707;SDS011;58277;47.316;18.908;2022-08-18T07:31:46;16.00;;;10.57;;
70707;SDS011;58277;47.316;18.908;2022-08-18T07:34:16;17.02;;;10.68;;
70707;SDS011;58277;47.316;18.908;2022-08-18T07:36:53;15.60;;;10.50;;
70707;SDS011;58277;47.316;18.908;2022-08-18T07:39:22;17.80;;;10.32;;
70707;SDS011;58277;47.316;18.908;2022-08-18T07:41:51;14.77;;;9.73;;
70707;SDS011;58277;47.316;18.908;2022-08-18T07:45:01;14.65;;;10.10;;
70707;SDS011;58277;47.316;18.908;2022-08-18T07:47:34;15.50;;;9.70;;
70707;SDS011;58277;47.316;18.908;2022-08-18T07:50:11;15.30;;;9.70;;
70707;SDS011;58277;47.316;18.908;2022-08-18T07:56:01;14.10;;;10.00;;
70707;SDS011;58277;47.316;18.908;2022-08-18T07:58:36;13.68;;;9.45;;
70707;SDS011;58277;47.316;18.908;2022-08-18T08:01:12;14.07;;;9.60;;
70707;SDS011;58277;47.316;18.908;2022-08-18T08:04:08;16.37;;;9.60;;
70707;SDS011;58277;47.316;18.908;2022-08-18T08:06:48;14.02;;;9.50;;
70707;SDS011;58277;47.316;18.908;2022-08-18T08:15:18;15.70;;;10.18;;
70707;SDS011;58277;47.316;18.908;2022-08-18T08:20:19;15.27;;;10.02;;
70707;SDS011;58277;47.316;18.908;2022-08-18T08:25:32;14.65;;;9.80;;
70707;SDS011;58277;47.316;18.908;2022-08-18T08:28:34;14.68;;;9.48;;
70707;SDS011;58277;47.316;18.908;2022-08-18T08:36:48;16.70;;;9.73;;
70707;SDS011;58277;47.316;18.908;2022-08-18T08:42:19;14.00;;;10.30;;
70707;SDS011;58277;47.316;18.908;2022-08-18T08:44:55;14.07;;;10.00;;
70707;SDS011;58277;47.316;18.908;2022-08-18T08:47:35;18.70;;;9.60;;
70707;SDS011;58277;47.316;18.908;2022-08-18T08:50:02;13.60;;;9.45;;
70707;SDS011;58277;47.316;18.908;2022-08-18T08:52:31;14.68;;;9.77;;
70707;SDS011;58277;47.316;18.908;2022-08-18T08:55:13;14.88;;;9.70;;
70707;SDS011;58277;47.316;18.908;2022-08-18T08:57:46;17.40;;;9.47;;
70707;SDS011;58277;47.316;18.908;2022-08-18T09:00:19;14.90;;;9.40;;
70707;SDS011;58277;47.316;18.908;2022-08-18T09:19:08;11.75;;;8.38;;
70707;SDS011;58277;47.316;18.908;2022-08-18T09:21:56;14.05;;;8.40;;
70707;SDS011;58277;47.316;18.908;2022-08-18T09:24:26;12.20;;;8.40;;
70707;SDS011;58277;47.316;18.908;2022-08-18T09:29:45;13.52;;;8.65;;
70707;SDS011;58277;47.316;18.908;2022-08-18T09:37:18;9.33;;;7.90;;
70707;SDS011;58277;47.316;18.908;2022-08-18T09:43:35;11.32;;;7.95;;
70707;SDS011;58277;47.316;18.908;2022-08-18T09:46:48;10.20;;;7.47;;
70707;SDS011;58277;47.316;18.908;2022-08-18T09:57:22;12.90;;;8.00;;
70707;SDS011;58277;47.316;18.908;2022-08-18T10:02:12;12.00;;;8.10;;
70707;SDS011;58277;47.316;18.908;2022-08-18T10:04:50;16.17;;;7.63;;
70707;SDS011;58277;47.316;18.908;2022-08-18T10:16:30;12.82;;;7.57;;
70707;SDS011;58277;47.316;18.908;2022-08-18T10:22:13;13.10;;;7.93;;
70707;SDS011;58277;47.316;18.908;2022-08-18T10:24:57;9.35;;;7.90;;
70707;SDS011;58277;47.316;18.908;2022-08-18T10:30:05;11.40;;;7.10;;
70707;SDS011;58277;47.316;18.908;2022-08-18T10:36:36;11.73;;;7.53;;
70707;SDS011;58277;47.316;18.908;2022-08-18T10:42:05;10.23;;;7.03;;
70707;SDS011;58277;47.316;18.908;2022-08-18T10:44:37;11.55;;;7.30;;
70707;SDS011;58277;47.316;18.908;2022-08-18T10:47:05;10.80;;;6.53;;
70707;SDS011;58277;47.316;18.908;2022-08-18T10:49:33;8.90;;;6.20;;
70707;SDS011;58277;47.316;18.908;2022-08-18T10:57:24;9.10;;;6.40;;
70707;SDS011;58277;47.316;18.908;2022-08-18T10:59:53;10.90;;;6.30;;
70707;SDS011;58277;47.316;18.908;2022-08-18T11:05:59;10.13;;;6.90;;
70707;SDS011;58277;47.316;18.908;2022-08-18T11:08:24;8.38;;;6.68;;
70707;SDS011;58277;47.316;18.908;2022-08-18T11:10:48;9.73;;;6.60;;
70707;SDS011;58277;47.316;18.908;2022-08-18T11:14:21;11.07;;;6.00;;
70707;SDS011;58277;47.316;18.908;2022-08-18T11:19:37;9.60;;;6.50;;
70707;SDS011;58277;47.316;18.908;2022-08-18T11:22:03;7.97;;;6.82;;
70707;SDS011;58277;47.316;18.908;2022-08-18T11:24:32;8.55;;;6.72;;
70707;SDS011;58277;47.316;18.908;2022-08-18T11:27:00;9.07;;;6.40;;
70707;SDS011;58277;47.316;18.908;2022-08-18T11:29:32;9.57;;;6.90;;
70707;SDS011;58277;47.316;18.908;2022-08-18T11:32:05;10.48;;;7.25;;
70707;SDS011;58277;47.316;18.908;2022-08-18T11:34:49;12.63;;;7.10;;
70707;SDS011;58277;47.316;18.908;2022-08-18T11:37:19;10.90;;;7.30;;
70707;SDS011;58277;47.316;18.908;2022-08-18T11:39:47;9.47;;;6.73;;
70707;SDS011;58277;47.316;18.908;2022-08-18T11:42:11;9.38;;;6.97;;
70707;SDS011;58277;47.316;18.908;2022-08-18T11:44:46;9.63;;;6.53;;
70707;SDS011;58277;47.316;18.908;2022-08-18T11:47:17;11.35;;;6.60;;
70707;SDS011;58277;47.316;18.908;2022-08-18T11:50:25;10.18;;;6.53;;
70707;SDS011;58277;47.316;18.908;2022-08-18T11:52:48;11.00;;;6.70;;
70707;SDS011;58277;47.316;18.908;2022-08-18T11:55:29;10.73;;;6.72;;
70707;SDS011;58277;47.316;18.908;2022-08-18T11:57:55;10.77;;;6.43;;
70707;SDS011;58277;47.316;18.908;2022-08-18T12:03:08;8.88;;;6.80;;
70707;SDS011;58277;47.316;18.908;2022-08-18T12:05:48;8.00;;;6.20;;
70707;SDS011;58277;47.316;18.908;2022-08-18T12:08:18;9.25;;;6.72;;
70707;SDS011;58277;47.316;18.908;2022-08-18T12:11:22;11.27;;;6.40;;
70707;SDS011;58277;47.316;18.908;2022-08-18T12:13:56;9.93;;;6.15;;
70707;SDS011;58277;47.316;18.908;2022-08-18T12:16:48;9.95;;;6.43;;
70707;SDS011;58277;47.316;18.908;2022-08-18T12:19:15;8.50;;;5.97;;
70707;SDS011;58277;47.316;18.908;2022-08-18T12:21:42;7.85;;;6.10;;
70707;SDS011;58277;47.316;18.908;2022-08-18T12:24:18;7.70;;;5.63;;
70707;SDS011;58277;47.316;18.908;2022-08-18T12:26:49;9.63;;;5.72;;
70707;SDS011;58277;47.316;18.908;2022-08-18T12:29:15;8.55;;;6.03;;
70707;SDS011;58277;47.316;18.908;2022-08-18T12:31:42;9.87;;;5.90;;
70707;SDS011;58277;47.316;18.908;2022-08-18T12:34:10;9.70;;;6.15;;
70707;SDS011;58277;47.316;18.908;2022-08-18T12:36:54;10.63;;;6.28;;
70707;SDS011;58277;47.316;18.908;2022-08-18T12:39:18;10.23;;;5.63;;
70707;SDS011;58277;47.316;18.908;2022-08-18T12:41:41;9.75;;;5.50;;
70707;SDS011;58277;47.316;18.908;2022-08-18T12:44:05;8.47;;;5.80;;
70707;SDS011;58277;47.316;18.908;2022-08-18T12:46:34;8.95;;;5.30;;
70707;SDS011;58277;47.316;18.908;2022-08-18T12:48:57;9.65;;;5.47;;
70707;SDS011;58277;47.316;18.908;2022-08-18T12:51:20;6.93;;;5.10;;
70707;SDS011;58277;47.316;18.908;2022-08-18T12:53:52;8.35;;;5.45;;
70707;SDS011;58277;47.316;18.908;2022-08-18T12:56:23;10.47;;;5.30;;
70707;SDS011;58277;47.316;18.908;2022-08-18T12:58:52;8.07;;;5.65;;
70707;SDS011;58277;47.316;18.908;2022-08-18T13:01:16;7.97;;;5.03;;
70707;SDS011;58277;47.316;18.908;2022-08-18T13:03:40;10.88;;;5.20;;
70707;SDS011;58277;47.316;18.908;2022-08-18T13:06:03;7.47;;;4.93;;
70707;SDS011;58277;47.316;18.908;2022-08-18T13:08:27;6.80;;;5.37;;
70707;SDS011;58277;47.316;18.908;2022-08-18T13:10:54;9.30;;;5.93;;
70707;SDS011;58277;47.316;18.908;2022-08-18T13:13:19;9.30;;;5.50;;
70707;SDS011;58277;47.316;18.908;2022-08-18T13:15:46;8.10;;;5.30;;
70707;SDS011;58277;47.316;18.908;2022-08-18T13:18:20;9.80;;;5.00;;
70707;SDS011;58277;47.316;18.908;2022-08-18T13:20:49;7.77;;;5.00;;
70707;SDS011;58277;47.316;18.908;2022-08-18T13:23:13;6.88;;;4.57;;
70707;SDS011;58277;47.316;18.908;2022-08-18T13:25:40;9.20;;;4.60;;
70707;SDS011;58277;47.316;18.908;2022-08-18T13:28:08;8.73;;;5.13;;
70707;SDS011;58277;47.316;18.908;2022-08-18T13:30:30;8.52;;;5.07;;
70707;SDS011;58277;47.316;18.908;2022-08-18T13:32:54;7.80;;;4.77;;
70707;SDS011;58277;47.316;18.908;2022-08-18T13:35:26;8.05;;;4.60;;
70707;SDS011;58277;47.316;18.908;2022-08-18T13:37:56;9.82;;;4.45;;
70707;SDS011;58277;47.316;18.908;2022-08-18T13:40:19;7.45;;;4.50;;
70707;SDS011;58277;47.316;18.908;2022-08-18T13:42:44;9.00;;;4.78;;
70707;SDS011;58277;47.316;18.908;2022-08-18T13:45:12;8.47;;;4.20;;
70707;SDS011;58277;47.316;18.908;2022-08-18T13:47:47;7.63;;;4.35;;
70707;SDS011;58277;47.316;18.908;2022-08-18T13:50:13;9.13;;;4.72;;
70707;SDS011;58277;47.316;18.908;2022-08-18T13:52:37;7.82;;;4.55;;
70707;SDS011;58277;47.316;18.908;2022-08-18T13:55:07;5.97;;;4.68;;
70707;SDS011;58277;47.316;18.908;2022-08-18T13:57:35;6.23;;;4.30;;
70707;SDS011;58277;47.316;18.908;2022-08-18T13:59:59;8.52;;;4.28;;
70707;SDS011;58277;47.316;18.908;2022-08-18T14:02:22;6.80;;;4.18;;
70707;SDS011;58277;47.316;18.908;2022-08-18T14:07:32;8.50;;;4.47;;
70707;SDS011;58277;47.316;18.908;2022-08-18T14:09:56;5.90;;;4.10;;
70707;SDS011;58277;47.316;18.908;2022-08-18T14:12:25;8.43;;;4.05;;
70707;SDS011;58277;47.316;18.908;2022-08-18T14:14:54;5.80;;;4.40;;
70707;SDS011;58277;47.316;18.908;2022-08-18T14:17:19;8.07;;;4.35;;
70707;SDS011;58277;47.316;18.908;2022-08-18T14:19:44;7.22;;;4.57;;
70707;SDS011;58277;47.316;18.908;2022-08-18T14:22:25;8.37;;;4.63;;
70707;SDS011;58277;47.316;18.908;2022-08-18T14:25:07;6.60;;;4.43;;
70707;SDS011;58277;47.316;18.908;2022-08-18T14:27:49;8.95;;;4.50;;
70707;SDS011;58277;47.316;18.908;2022-08-18T14:30:18;6.47;;;4.50;;
70707;SDS011;58277;47.316;18.908;2022-08-18T14:32:41;7.75;;;4.32;;
70707;SDS011;58277;47.316;18.908;2022-08-18T14:35:11;7.67;;;4.40;;
70707;SDS011;58277;47.316;18.908;2022-08-18T14:37:54;8.98;;;4.18;;
70707;SDS011;58277;47.316;18.908;2022-08-18T14:40:18;8.35;;;4.30;;
70707;SDS011;58277;47.316;18.908;2022-08-18T14:42:41;7.57;;;4.28;;
70707;SDS011;58277;47.316;18.908;2022-08-18T14:45:16;7.85;;;4.20;;
70707;SDS011;58277;47.316;18.908;2022-08-18T14:47:56;8.80;;;4.00;;
70707;SDS011;58277;47.316;18.908;2022-08-18T14:50:19;6.85;;;4.00;;
70707;SDS011;58277;47.316;18.908;2022-08-18T14:52:46;8.52;;;4.53;;
70707;SDS011;58277;47.316;18.908;2022-08-18T14:55:12;8.88;;;4.00;;
70707;SDS011;58277;47.316;18.908;2022-08-18T14:57:37;6.07;;;4.30;;
70707;SDS011;58277;47.316;18.908;2022-08-18T15:00:03;5.73;;;4.13;;
70707;SDS011;58277;47.316;18.908;2022-08-18T15:02:33;9.82;;;5.00;;
70707;SDS011;58277;47.316;18.908;2022-08-18T15:04:57;6.53;;;4.55;;
70707;SDS011;58277;47.316;18.908;2022-08-18T15:07:19;7.63;;;4.53;;
70707;SDS011;58277;47.316;18.908;2022-08-18T15:09:45;9.32;;;4.32;;
70707;SDS011;58277;47.316;18.908;2022-08-18T15:12:09;9.07;;;4.20;;
70707;SDS011;58277;47.316;18.908;2022-08-18T15:14:35;7.93;;;4.47;;
70707;SDS011;58277;47.316;18.908;2022-08-18T15:17:02;7.50;;;4.35;;
70707;SDS011;58277;47.316;18.908;2022-08-18T15:19:35;6.75;;;3.95;;
70707;SDS011;58277;47.316;18.908;2022-08-18T15:22:18;7.35;;;4.43;;
70707;SDS011;58277;47.316;18.908;2022-08-18T15:25:01;8.40;;;4.80;;
70707;SDS011;58277;47.316;18.908;2022-08-18T15:27:45;7.95;;;4.40;;
70707;SDS011;58277;47.316;18.908;2022-08-18T15:30:13;9.68;;;4.85;;
70707;SDS011;58277;47.316;18.908;2022-08-18T15:32:44;9.27;;;4.40;;
70707;SDS011;58277;47.316;18.908;2022-08-18T15:35:11;8.32;;;4.68;;
70707;SDS011;58277;47.316;18.908;2022-08-18T15:37:38;8.30;;;3.97;;
70707;SDS011;58277;47.316;18.908;2022-08-18T15:40:12;8.40;;;4.43;;
70707;SDS011;58277;47.316;18.908;2022-08-18T15:42:53;7.53;;;4.30;;
70707;SDS011;58277;47.316;18.908;2022-08-18T15:45:23;8.52;;;4.18;;
70707;SDS011;58277;47.316;18.908;2022-08-18T15:47:56;5.88;;;3.85;;
70707;SDS011;58277;47.316;18.908;2022-08-18T15:50:19;6.43;;;3.83;;
70707;SDS011;58277;47.316;18.908;2022-08-18T15:52:47;8.82;;;4.25;;
70707;SDS011;58277;47.316;18.908;2022-08-18T15:55:24;7.80;;;4.03;;
70707;SDS011;58277;47.316;18.908;2022-08-18T15:57:49;7.20;;;4.30;;
70707;SDS011;58277;47.316;18.908;2022-08-18T16:00:19;10.25;;;4.43;;
70707;SDS011;58277;47.316;18.908;2022-08-18T16:02:48;9.67;;;5.60;;
70707;SDS011;58277;47.316;18.908;2022-08-18T16:05:12;9.73;;;4.38;;
70707;SDS011;58277;47.316;18.908;2022-08-18T16:07:36;7.25;;;4.18;;
70707;SDS011;58277;47.316;18.908;2022-08-18T16:10:06;7.90;;;4.95;;
70707;SDS011;58277;47.316;18.908;2022-08-18T16:12:29;7.20;;;4.95;;
70707;SDS011;58277;47.316;18.908;2022-08-18T16:14:52;9.93;;;5.50;;
70707;SDS011;58277;47.316;18.908;2022-08-18T16:17:14;9.52;;;4.43;;
70707;SDS011;58277;47.316;18.908;2022-08-18T16:19:51;7.80;;;4.22;;
70707;SDS011;58277;47.316;18.908;2022-08-18T16:22:14;9.95;;;4.38;;
70707;SDS011;58277;47.316;18.908;2022-08-18T16:24:38;6.20;;;4.10;;
70707;SDS011;58277;47.316;18.908;2022-08-18T16:27:01;7.80;;;4.20;;
70707;SDS011;58277;47.316;18.908;2022-08-18T16:29:24;10.98;;;3.97;;
70707;SDS011;58277;47.316;18.908;2022-08-18T16:31:47;9.88;;;4.70;;
70707;SDS011;58277;47.316;18.908;2022-08-18T16:34:10;9.75;;;3.92;;
70707;SDS011;58277;47.316;18.908;2022-08-18T16:36:33;7.10;;;3.75;;
70707;SDS011;58277;47.316;18.908;2022-08-18T16:38:56;8.17;;;3.37;;
70707;SDS011;58277;47.316;18.908;2022-08-18T16:41:19;9.95;;;3.40;;
70707;SDS011;58277;47.316;18.908;2022-08-18T16:43:43;10.15;;;3.38;;
70707;SDS011;58277;47.316;18.908;2022-08-18T16:46:11;9.38;;;3.20;;
70707;SDS011;58277;47.316;18.908;2022-08-18T16:48:44;9.90;;;3.40;;
70707;SDS011;58277;47.316;18.908;2022-08-18T16:51:07;12.63;;;3.20;;
70707;SDS011;58277;47.316;18.908;2022-08-18T16:53:33;8.95;;;3.38;;
70707;SDS011;58277;47.316;18.908;2022-08-18T16:56:01;9.05;;;3.20;;